createdAt,value
2023-04-29T00:02:54.288Z,20.70
2023-04-29T00:05:56.689Z,20.60
2023-04-29T00:08:58.916Z,20.60
2023-04-29T00:12:01.218Z,20.60
2023-04-29T00:15:03.535Z,20.50
2023-04-29T00:18:06.076Z,20.60
2023-04-29T00:21:08.336Z,20.50
2023-04-29T00:24:11.051Z,20.50
2023-04-29T00:27:13.308Z,20.50
2023-04-29T00:30:15.563Z,20.50
2023-04-29T00:33:18.711Z,20.40
2023-04-29T00:36:23.810Z,20.40
2023-04-29T00:39:26.032Z,20.40
2023-04-29T00:42:29.610Z,20.40
2023-04-29T00:45:31.851Z,20.40
2023-04-29T00:48:35.971Z,20.40
2023-04-29T00:51:40.984Z,20.30
2023-04-29T00:54:44.035Z,20.30
2023-04-29T00:57:48.627Z,20.30
2023-04-29T01:00:51.136Z,20.20
2023-04-29T01:03:53.700Z,20.30
2023-04-29T01:07:13.824Z,20.30
2023-04-29T01:10:48.804Z,20.40
2023-04-29T01:13:57.434Z,20.40
2023-04-29T01:17:10.346Z,20.40
2023-04-29T01:20:13.937Z,20.40
2023-04-29T01:23:17.867Z,20.40
2023-04-29T01:26:20.298Z,20.50
2023-04-29T01:29:54.027Z,20.50
2023-04-29T01:33:49.728Z,20.50
2023-04-29T01:37:10.085Z,20.50
2023-04-29T01:40:27.730Z,20.40
2023-04-29T01:43:32.987Z,20.50
2023-04-29T01:46:36.632Z,20.50
2023-04-29T01:49:39.638Z,20.50
2023-04-29T01:52:41.784Z,20.50
2023-04-29T01:55:44.294Z,20.50
2023-04-29T01:58:46.507Z,20.60
2023-04-29T02:01:49.040Z,20.60
2023-04-29T02:04:51.766Z,20.40
2023-04-29T02:07:54.040Z,20.40
2023-04-29T02:10:57.797Z,20.50
2023-04-29T02:14:00.128Z,20.50
2023-04-29T02:17:02.467Z,20.50
2023-04-29T02:20:05.003Z,20.60
2023-04-29T02:23:07.470Z,20.60
2023-04-29T02:26:10.900Z,20.60
2023-04-29T02:29:13.038Z,20.70
2023-04-29T02:32:16.193Z,20.70
2023-04-29T02:35:18.408Z,20.70
2023-04-29T02:38:21.126Z,20.70
2023-04-29T02:41:23.832Z,20.70
2023-04-29T02:44:26.177Z,20.80
2023-04-29T02:47:28.468Z,20.80
2023-04-29T02:50:40.257Z,20.80
2023-04-29T02:53:42.376Z,20.80
2023-04-29T02:56:44.524Z,20.80
2023-04-29T02:59:46.648Z,20.80
2023-04-29T03:02:48.937Z,20.80
2023-04-29T03:05:51.334Z,20.80
2023-04-29T03:08:53.925Z,20.80
2023-04-29T03:11:56.288Z,20.80
2023-04-29T03:14:59.404Z,20.70
2023-04-29T03:18:02.228Z,20.70
2023-04-29T03:21:04.935Z,20.70
2023-04-29T03:24:07.114Z,20.70
2023-04-29T03:27:09.266Z,20.50
2023-04-29T03:30:11.796Z,20.60
2023-04-29T03:33:13.934Z,20.50
2023-04-29T03:36:16.119Z,20.50
2023-04-29T03:39:18.564Z,20.40
2023-04-29T03:42:20.777Z,20.30
2023-04-29T03:45:24.648Z,20.20
2023-04-29T03:48:28.018Z,20.20
2023-04-29T03:51:30.389Z,20.20
2023-04-29T03:54:32.644Z,20.10
2023-04-29T03:57:34.848Z,20.00
2023-04-29T04:00:37.062Z,20.00
2023-04-29T04:03:49.444Z,19.90
2023-04-29T04:06:52.085Z,19.90
2023-04-29T04:09:54.538Z,19.90
2023-04-29T04:12:56.940Z,19.90
2023-04-29T04:16:07.226Z,19.80
2023-04-29T04:19:10.085Z,19.80
2023-04-29T04:22:12.976Z,19.80
2023-04-29T04:25:15.233Z,19.80
2023-04-29T04:28:17.348Z,19.80
2023-04-29T04:31:19.476Z,19.70
2023-04-29T04:34:21.677Z,19.80
2023-04-29T04:37:23.785Z,19.80
2023-04-29T04:40:26.008Z,19.90
2023-04-29T04:43:28.115Z,19.90
2023-04-29T04:46:30.524Z,19.80
2023-04-29T04:49:32.696Z,19.80
2023-04-29T04:52:35.119Z,19.80
2023-04-29T04:55:37.402Z,19.80
2023-04-29T04:58:39.632Z,19.80
2023-04-29T05:01:41.943Z,19.70
2023-04-29T05:04:44.842Z,19.80
2023-04-29T05:07:46.912Z,19.80
2023-04-29T05:10:49.062Z,19.80
2023-04-29T05:13:51.498Z,19.70
2023-04-29T05:16:53.899Z,19.80
2023-04-29T05:19:56.110Z,19.80
2023-04-29T05:22:58.277Z,19.70
2023-04-29T05:26:00.422Z,19.80
2023-04-29T05:29:02.896Z,19.70
2023-04-29T05:32:05.395Z,19.70
2023-04-29T05:35:08.152Z,19.70
2023-04-29T05:38:11.122Z,19.70
2023-04-29T05:41:14.367Z,19.80
2023-04-29T05:44:16.554Z,19.90
2023-04-29T05:47:18.724Z,20.00
2023-04-29T05:50:20.824Z,20.00
2023-04-29T05:53:23.126Z,20.00
2023-04-29T05:56:25.424Z,20.00
2023-04-29T05:59:27.634Z,20.00
2023-04-29T06:02:30.148Z,20.00
2023-04-29T06:05:32.810Z,20.00
2023-04-29T06:08:35.495Z,20.00
2023-04-29T06:11:37.590Z,20.10
2023-04-29T06:14:39.734Z,20.20
2023-04-29T06:17:41.881Z,20.30
2023-04-29T06:20:44.002Z,20.30
2023-04-29T06:23:46.424Z,20.40
2023-04-29T06:26:49.027Z,20.50
2023-04-29T06:29:53.666Z,20.60
2023-04-29T06:32:56.206Z,20.70
2023-04-29T06:35:58.297Z,20.70
2023-04-29T06:39:00.497Z,20.80
2023-04-29T06:42:03.781Z,20.70
2023-04-29T06:45:06.764Z,20.90
2023-04-29T06:48:09.041Z,20.90
2023-04-29T06:51:11.406Z,21.00
2023-04-29T06:54:13.542Z,20.90
2023-04-29T06:57:15.725Z,21.00
2023-04-29T07:00:19.691Z,21.10
2023-04-29T07:03:21.956Z,20.90
2023-04-29T07:06:24.337Z,21.00
2023-04-29T07:09:27.863Z,21.00
2023-04-29T07:12:29.963Z,21.00
2023-04-29T07:15:35.296Z,21.00
2023-04-29T07:18:37.541Z,21.10
2023-04-29T07:21:39.662Z,21.10
2023-04-29T07:24:41.919Z,21.10
2023-04-29T07:27:44.943Z,21.40
2023-04-29T07:30:47.213Z,22.20
2023-04-29T07:33:49.555Z,23.00
2023-04-29T07:36:51.773Z,24.30
2023-04-29T07:39:53.912Z,25.50
2023-04-29T07:42:56.072Z,26.60
2023-04-29T07:45:59.602Z,27.80
2023-04-29T07:49:01.963Z,27.70
2023-04-29T07:52:06.333Z,28.30
2023-04-29T07:55:09.058Z,28.90
2023-04-29T07:58:11.319Z,28.80
2023-04-29T08:01:13.401Z,28.30
2023-04-29T08:04:15.937Z,29.00
2023-04-29T08:07:18.289Z,29.20
2023-04-29T08:10:22.908Z,29.50
2023-04-29T08:13:25.917Z,30.60
2023-04-29T08:16:28.374Z,31.70
2023-04-29T08:19:31.298Z,30.90
2023-04-29T08:22:33.887Z,30.20
2023-04-29T08:25:36.034Z,29.30
2023-04-29T08:28:38.387Z,28.00
2023-04-29T08:31:41.155Z,26.80
2023-04-29T08:34:44.813Z,26.10
2023-04-29T08:37:47.958Z,25.20
2023-04-29T08:40:50.180Z,24.80
2023-04-29T08:43:52.495Z,24.60
2023-04-29T08:46:56.082Z,24.20
2023-04-29T08:50:05.770Z,24.30
2023-04-29T08:53:09.524Z,25.10
2023-04-29T08:56:20.699Z,25.50
2023-04-29T08:59:23.872Z,26.50
2023-04-29T09:02:26.802Z,27.70
2023-04-29T09:05:29.911Z,28.10
2023-04-29T09:08:33.733Z,27.70
2023-04-29T09:11:38.075Z,27.50
2023-04-29T09:14:40.755Z,28.80
2023-04-29T09:17:47.842Z,28.90
2023-04-29T09:20:50.033Z,29.00
2023-04-29T09:23:54.306Z,28.50
2023-04-29T09:26:57.429Z,27.90
2023-04-29T09:30:02.683Z,28.30
2023-04-29T09:33:09.791Z,28.60
2023-04-29T09:36:12.067Z,29.70
2023-04-29T09:39:22.467Z,30.00
2023-04-29T09:42:25.034Z,30.70
2023-04-29T09:45:42.161Z,30.80
2023-04-29T09:48:45.692Z,30.20
2023-04-29T09:52:05.959Z,31.70
2023-04-29T09:55:09.072Z,32.10
2023-04-29T09:58:28.302Z,32.30
2023-04-29T10:01:32.255Z,32.20
2023-04-29T10:04:40.272Z,32.50
2023-04-29T10:07:48.392Z,32.20
2023-04-29T10:10:57.706Z,32.80
2023-04-29T10:14:00.701Z,33.90
2023-04-29T10:17:24.422Z,34.10
2023-04-29T10:20:26.732Z,34.40
2023-04-29T10:23:30.557Z,34.20
2023-04-29T10:26:34.351Z,34.20
2023-04-29T10:29:38.950Z,34.00
2023-04-29T10:32:50.526Z,34.00
2023-04-29T10:35:56.125Z,34.00
2023-04-29T10:39:02.058Z,34.60
2023-04-29T10:42:16.089Z,35.50
2023-04-29T10:45:21.330Z,35.50
2023-04-29T10:48:26.770Z,35.90
2023-04-29T10:51:31.875Z,34.80
2023-04-29T10:54:34.551Z,34.30
2023-04-29T10:57:36.848Z,34.00
2023-04-29T11:00:39.101Z,33.60
2023-04-29T11:03:55.872Z,34.00
2023-04-29T11:06:59.410Z,34.40
2023-04-29T11:10:03.003Z,34.40
2023-04-29T11:13:40.607Z,34.60
2023-04-29T11:16:49.787Z,34.10
2023-04-29T11:19:54.397Z,33.50
2023-04-29T11:22:57.422Z,33.30
2023-04-29T11:26:05.793Z,32.90
2023-04-29T11:29:12.019Z,32.00
2023-04-29T11:32:15.237Z,31.30
2023-04-29T11:35:19.913Z,30.80
2023-04-29T11:38:41.749Z,30.40
2023-04-29T11:41:43.936Z,29.90
2023-04-29T11:44:53.654Z,29.70
2023-04-29T11:47:56.338Z,29.60
2023-04-29T11:50:59.973Z,29.40
2023-04-29T11:54:02.350Z,29.00
2023-04-29T11:57:05.645Z,29.00
2023-04-29T12:00:14.350Z,28.30
2023-04-29T12:03:21.157Z,28.20
2023-04-29T12:06:30.348Z,27.70
2023-04-29T12:09:43.669Z,27.40
2023-04-29T12:12:46.747Z,27.50
2023-04-29T12:15:51.294Z,27.10
2023-04-29T12:18:54.092Z,27.00
2023-04-29T12:22:01.074Z,26.70
2023-04-29T12:25:04.516Z,26.80
2023-04-29T12:28:08.461Z,26.80
2023-04-29T12:31:13.698Z,26.50
2023-04-29T12:34:15.883Z,26.40
2023-04-29T12:37:18.611Z,26.30
2023-04-29T12:40:21.793Z,26.10
2023-04-29T12:43:31.490Z,26.10
2023-04-29T12:46:41.476Z,26.30
2023-04-29T12:49:45.682Z,26.50
2023-04-29T12:52:47.871Z,26.60
2023-04-29T12:55:50.043Z,26.60
2023-04-29T12:58:53.534Z,26.40
2023-04-29T13:01:55.893Z,26.60
2023-04-29T13:04:58.482Z,26.60
2023-04-29T13:08:01.308Z,26.60
2023-04-29T13:11:03.551Z,26.70
2023-04-29T13:14:08.035Z,26.80
2023-04-29T13:17:11.084Z,26.90
2023-04-29T13:20:13.726Z,26.70
2023-04-29T13:23:15.882Z,26.80
2023-04-29T13:26:18.902Z,26.40
2023-04-29T13:29:21.310Z,26.40
2023-04-29T13:32:24.835Z,26.20
2023-04-29T13:35:27.032Z,26.20
2023-04-29T13:38:29.173Z,26.20
2023-04-29T13:41:34.595Z,26.10
2023-04-29T13:44:51.826Z,25.90
2023-04-29T13:48:07.290Z,25.80
2023-04-29T13:58:20.615Z,26.20
2023-04-29T14:03:55.432Z,26.40
2023-04-29T14:06:57.970Z,26.50
2023-04-29T14:10:02.329Z,26.40
2023-04-29T14:13:04.723Z,25.80
2023-04-29T14:16:07.376Z,25.50
2023-04-29T14:19:09.779Z,25.30
2023-04-29T14:22:11.979Z,25.40
2023-04-29T14:25:14.290Z,25.40
2023-04-29T14:28:16.384Z,25.50
2023-04-29T14:31:18.748Z,25.20
2023-04-29T14:34:21.338Z,25.40
2023-04-29T14:37:23.750Z,25.30
2023-04-29T14:40:25.954Z,25.30
2023-04-29T14:43:29.130Z,25.30
2023-04-29T14:46:34.409Z,25.20
2023-04-29T14:49:37.452Z,25.30
2023-04-29T14:52:39.597Z,25.20
2023-04-29T14:55:42.026Z,25.10
2023-04-29T14:58:44.460Z,25.00
2023-04-29T15:01:46.948Z,25.10
2023-04-29T15:04:50.000Z,25.10
2023-04-29T15:07:52.658Z,25.10
2023-04-29T15:10:54.858Z,25.10
2023-04-29T15:13:57.015Z,25.10
2023-04-29T15:16:59.356Z,25.00
2023-04-29T15:20:01.515Z,25.00
2023-04-29T15:23:04.394Z,25.00
2023-04-29T15:26:07.222Z,25.00
2023-04-29T15:29:09.977Z,25.10
2023-04-29T15:32:12.227Z,25.30
2023-04-29T15:35:14.519Z,25.10
2023-04-29T15:38:16.642Z,25.10
2023-04-29T15:41:18.895Z,25.10
2023-04-29T15:44:21.052Z,25.30
2023-04-29T15:47:24.777Z,25.30
2023-04-29T15:50:26.918Z,25.00
2023-04-29T15:53:29.156Z,24.70
2023-04-29T15:56:31.473Z,24.80
2023-04-29T15:59:33.604Z,24.80
2023-04-29T16:02:36.067Z,24.80
2023-04-29T16:05:38.851Z,24.70
2023-04-29T16:08:41.154Z,24.60
2023-04-29T16:11:43.287Z,24.30
2023-04-29T16:14:45.339Z,24.30
2023-04-29T16:17:47.608Z,24.10
2023-04-29T16:20:49.735Z,24.20
2023-04-29T16:23:52.388Z,24.10
2023-04-29T16:26:55.801Z,23.90
2023-04-29T16:29:59.393Z,23.80
2023-04-29T16:33:02.362Z,23.60
2023-04-29T16:36:05.458Z,23.50
2023-04-29T16:39:08.570Z,23.60
2023-04-29T16:42:11.013Z,23.60
2023-04-29T16:45:14.853Z,23.50
2023-04-29T16:48:17.254Z,23.50
2023-04-29T16:51:26.416Z,23.30
2023-04-29T16:54:28.699Z,23.40
2023-04-29T16:57:32.131Z,23.30
2023-04-29T17:00:34.315Z,23.50
2023-04-29T17:03:36.570Z,23.40
2023-04-29T17:06:40.950Z,23.40
2023-04-29T17:09:44.502Z,23.50
2023-04-29T17:12:47.369Z,23.60
2023-04-29T17:15:49.726Z,23.60
2023-04-29T17:18:52.015Z,23.60
2023-04-29T17:21:54.333Z,23.60
2023-04-29T17:24:57.161Z,23.70
2023-04-29T17:27:59.790Z,23.70
2023-04-29T17:31:02.623Z,23.80
2023-04-29T17:34:18.467Z,23.60
2023-04-29T17:37:25.178Z,23.50
2023-04-29T17:40:27.699Z,23.40
2023-04-29T17:43:32.606Z,23.20
2023-04-29T17:46:36.096Z,23.20
2023-04-29T17:49:38.556Z,22.70
2023-04-29T17:52:40.778Z,22.40
2023-04-29T17:55:46.346Z,22.20
2023-04-29T17:58:48.454Z,21.90
2023-04-29T18:01:51.333Z,21.90
2023-04-29T18:04:56.364Z,22.10
2023-04-29T18:07:58.528Z,22.10
2023-04-29T18:11:00.658Z,22.20
2023-04-29T18:14:02.867Z,22.20
2023-04-29T18:17:05.342Z,22.30
2023-04-29T18:20:08.552Z,22.40
2023-04-29T18:23:11.891Z,22.50
2023-04-29T18:26:14.968Z,22.20
2023-04-29T18:29:17.101Z,21.80
2023-04-29T18:32:19.346Z,21.50
2023-04-29T18:35:21.645Z,21.30
2023-04-29T18:38:23.967Z,21.30
2023-04-29T18:41:26.644Z,21.20
2023-04-29T18:44:29.129Z,21.10
2023-04-29T18:47:31.317Z,20.80
2023-04-29T18:50:33.513Z,20.80
2023-04-29T18:53:35.741Z,20.80
2023-04-29T18:56:40.164Z,20.80
2023-04-29T18:59:42.592Z,20.60
2023-04-29T19:02:46.359Z,20.60
2023-04-29T19:05:48.632Z,20.40
2023-04-29T19:08:50.711Z,20.60
2023-04-29T19:11:52.768Z,20.40
2023-04-29T19:14:54.949Z,20.30
2023-04-29T19:17:57.196Z,20.20
2023-04-29T19:21:00.218Z,20.30
2023-04-29T19:24:02.423Z,19.90
2023-04-29T19:27:06.331Z,19.90
2023-04-29T19:30:09.015Z,19.90
2023-04-29T19:33:11.595Z,19.90
2023-04-29T19:36:14.524Z,20.00
2023-04-29T19:39:18.588Z,19.90
2023-04-29T19:42:20.839Z,19.90
2023-04-29T19:45:24.077Z,19.80
2023-04-29T19:48:26.441Z,19.70
2023-04-29T19:51:29.018Z,19.70
2023-04-29T19:54:31.414Z,19.70
2023-04-29T19:57:35.620Z,19.70
2023-04-29T20:00:38.046Z,19.70
2023-04-29T20:03:40.943Z,19.60
2023-04-29T20:06:43.089Z,19.60
2023-04-29T20:09:46.206Z,19.70
2023-04-29T20:12:48.304Z,19.80
2023-04-29T20:15:50.487Z,19.80
2023-04-29T20:18:52.629Z,19.70
2023-04-29T20:21:54.857Z,19.80
2023-04-29T20:24:59.520Z,19.70
2023-04-29T20:28:01.773Z,19.80
2023-04-29T20:31:04.064Z,19.80
2023-04-29T20:34:07.097Z,19.80
2023-04-29T20:37:09.880Z,19.70
2023-04-29T20:40:12.345Z,19.80
2023-04-29T20:43:14.635Z,19.80
2023-04-29T20:46:16.969Z,19.60
2023-04-29T20:49:19.622Z,19.70
2023-04-29T20:52:21.831Z,19.60
2023-04-29T20:55:25.048Z,19.60
2023-04-29T20:58:31.269Z,19.60
2023-04-29T21:01:34.167Z,19.60
2023-04-29T21:04:37.699Z,19.50
2023-04-29T21:07:39.830Z,19.50
2023-04-29T21:10:42.929Z,19.50
2023-04-29T21:13:52.174Z,19.50
2023-04-29T21:16:54.741Z,19.60
2023-04-29T21:19:56.972Z,19.60
2023-04-29T21:22:59.921Z,19.40
2023-04-29T21:26:05.608Z,19.40
2023-04-29T21:29:07.715Z,19.30
2023-04-29T21:32:09.974Z,19.30
2023-04-29T21:35:12.246Z,19.30
2023-04-29T21:38:14.440Z,19.20
2023-04-29T21:41:28.439Z,19.20
2023-04-29T21:44:30.836Z,19.20
2023-04-29T21:47:35.603Z,19.20
2023-04-29T21:50:38.289Z,19.30
2023-04-29T21:53:40.988Z,19.30
2023-04-29T21:56:43.112Z,19.20
2023-04-29T21:59:45.309Z,19.30
2023-04-29T22:02:47.627Z,19.30
2023-04-29T22:05:49.860Z,19.10
2023-04-29T22:08:51.969Z,19.00
2023-04-29T22:11:54.145Z,19.00
2023-04-29T22:14:56.205Z,19.00
2023-04-29T22:17:58.576Z,19.00
2023-04-29T22:21:00.902Z,19.00
2023-04-29T22:24:03.110Z,19.00
2023-04-29T22:27:05.244Z,18.90
2023-04-29T22:30:08.410Z,18.80
2023-04-29T22:33:12.567Z,18.70
2023-04-29T22:36:14.931Z,18.70
2023-04-29T22:39:17.009Z,18.70
2023-04-29T22:42:24.281Z,18.70
2023-04-29T22:45:26.452Z,18.80
2023-04-29T22:48:28.853Z,18.80
2023-04-29T22:51:32.286Z,18.70
2023-04-29T22:54:35.380Z,18.70
2023-04-29T22:57:37.498Z,18.70
2023-04-29T23:00:39.768Z,18.70
2023-04-29T23:03:42.154Z,18.80
2023-04-29T23:06:44.660Z,18.80
2023-04-29T23:09:46.911Z,18.80
2023-04-29T23:12:49.110Z,19.00
2023-04-29T23:15:52.412Z,19.00
2023-04-29T23:18:54.620Z,18.90
2023-04-29T23:21:56.815Z,18.70
2023-04-29T23:24:58.968Z,18.80
2023-04-29T23:28:01.214Z,18.90
2023-04-29T23:31:03.542Z,18.80
2023-04-29T23:34:05.644Z,18.80
2023-04-29T23:37:07.882Z,18.70
2023-04-29T23:40:10.531Z,18.60
2023-04-29T23:43:13.378Z,18.60
2023-04-29T23:46:16.601Z,18.60
2023-04-29T23:49:18.765Z,18.60
2023-04-29T23:52:20.862Z,18.60
2023-04-29T23:55:22.964Z,18.50
2023-04-29T23:58:25.397Z,18.40
